createdAt,value
2022-11-05T00:00:41.860Z,101578.87
2022-11-05T00:03:28.291Z,101583.97
2022-11-05T00:06:15.691Z,101580.06
2022-11-05T00:09:03.656Z,101572.89
2022-11-05T00:11:51.197Z,101576.67
2022-11-05T00:14:38.754Z,101570.04
2022-11-05T00:17:08.510Z,101569.72
2022-11-05T00:19:38.270Z,101569.02
2022-11-05T00:22:26.184Z,101573.77
2022-11-05T00:25:13.297Z,101566.47
2022-11-05T00:27:44.189Z,101566.83
2022-11-05T00:30:18.619Z,101564.44
2022-11-05T00:32:50.695Z,101565.10
2022-11-05T00:35:22.759Z,101567.84
2022-11-05T00:37:54.570Z,101578.55
2022-11-05T00:40:24.297Z,101578.36
2022-11-05T00:43:12.213Z,101576.52
2022-11-05T00:45:42.363Z,101574.12
2022-11-05T00:48:29.885Z,101581.27
2022-11-05T00:50:59.678Z,101582.79
2022-11-05T00:53:29.541Z,101584.52
2022-11-05T00:56:00.445Z,101586.37
2022-11-05T00:58:30.289Z,101586.37
2022-11-05T01:01:01.874Z,101587.89
2022-11-05T01:03:34.665Z,101589.77
2022-11-05T01:06:12.606Z,101592.48
2022-11-05T01:08:44.023Z,101597.56
2022-11-05T01:11:35.089Z,101600.63
2022-11-05T01:14:09.792Z,101598.91
2022-11-05T01:16:40.674Z,101614.02
2022-11-05T01:19:11.856Z,101614.51
2022-11-05T01:21:41.991Z,101634.20
2022-11-05T01:24:12.274Z,101634.20
2022-11-05T01:26:42.100Z,101634.55
2022-11-05T01:29:12.642Z,101637.58
2022-11-05T01:31:42.401Z,101636.02
2022-11-05T01:34:11.843Z,101648.89
2022-11-05T01:36:41.317Z,101639.25
2022-11-05T01:39:11.091Z,101648.41
2022-11-05T01:41:41.141Z,101641.62
2022-11-05T01:44:49.206Z,101646.69
2022-11-05T01:47:33.812Z,101639.53
2022-11-05T01:50:20.825Z,101648.55
2022-11-05T01:52:53.027Z,101657.69
2022-11-05T01:55:25.834Z,101649.84
2022-11-05T01:57:58.615Z,101649.84
2022-11-05T02:00:28.349Z,101656.80
2022-11-05T02:02:58.986Z,101656.80
2022-11-05T02:05:29.436Z,101655.74
2022-11-05T02:07:59.265Z,101651.55
2022-11-05T02:10:29.765Z,101655.10
2022-11-05T02:12:59.997Z,101647.78
2022-11-05T02:15:32.760Z,101638.83
2022-11-05T02:18:20.330Z,101631.80
2022-11-05T02:21:10.452Z,101631.80
2022-11-05T02:23:52.085Z,101635.56
2022-11-05T02:26:24.879Z,101634.72
2022-11-05T02:29:20.202Z,101630.34
2022-11-05T02:32:11.993Z,101631.53
2022-11-05T02:34:50.586Z,101636.58
2022-11-05T02:37:41.158Z,101630.44
2022-11-05T02:40:29.486Z,101630.44
2022-11-05T02:43:20.202Z,101633.32
2022-11-05T02:46:04.744Z,101619.12
2022-11-05T02:48:46.527Z,101624.54
2022-11-05T02:54:43.502Z,101626.67
2022-11-05T02:57:13.301Z,101627.93
2022-11-05T02:59:43.069Z,101628.70
2022-11-05T03:02:13.620Z,101629.17
2022-11-05T03:04:43.594Z,101624.80
2022-11-05T03:07:25.347Z,101628.48
2022-11-05T03:10:22.135Z,101627.98
2022-11-05T03:13:06.830Z,101627.81
2022-11-05T03:15:57.408Z,101630.36
2022-11-05T03:18:44.852Z,101625.61
2022-11-05T03:21:20.168Z,101628.74
2022-11-05T03:23:58.244Z,101624.80
2022-11-05T03:26:31.084Z,101627.98
2022-11-05T03:29:13.315Z,101632.51
2022-11-05T03:31:45.103Z,101628.27
2022-11-05T03:34:16.629Z,101635.05
2022-11-05T03:36:49.693Z,101636.23
2022-11-05T03:39:37.377Z,101636.23
2022-11-05T03:42:12.717Z,101634.54
2022-11-05T03:44:45.803Z,101636.84
2022-11-05T03:47:18.654Z,101636.91
2022-11-05T03:49:57.270Z,101640.87
2022-11-05T03:52:29.772Z,101636.33
2022-11-05T03:55:00.470Z,101641.20
2022-11-05T03:57:33.292Z,101639.67
2022-11-05T04:00:04.713Z,101634.75
2022-11-05T04:02:36.312Z,101640.98
2022-11-05T04:05:09.703Z,101638.31
2022-11-05T04:07:57.461Z,101638.31
2022-11-05T04:10:44.640Z,101639.16
2022-11-05T04:13:26.429Z,101641.54
2022-11-05T04:16:15.372Z,101649.67
2022-11-05T04:18:45.112Z,101653.34
2022-11-05T04:21:32.894Z,101653.23
2022-11-05T04:24:08.817Z,101648.19
2022-11-05T04:26:44.967Z,101650.56
2022-11-05T04:29:32.542Z,101650.56
2022-11-05T04:32:02.261Z,101657.30
2022-11-05T04:34:32.006Z,101663.80
2022-11-05T04:37:01.775Z,101657.64
2022-11-05T04:39:31.899Z,101658.16
2022-11-05T04:42:01.804Z,101662.84
2022-11-05T04:44:31.857Z,101663.64
2022-11-05T04:47:01.362Z,101668.59
2022-11-05T04:49:31.152Z,101678.88
2022-11-05T04:52:00.905Z,101674.20
2022-11-05T04:54:31.122Z,101676.58
2022-11-05T04:57:01.138Z,101672.95
2022-11-05T04:59:30.906Z,101671.20
2022-11-05T05:02:00.697Z,101671.43
2022-11-05T05:04:30.263Z,101676.73
2022-11-05T05:07:00.123Z,101673.52
2022-11-05T05:09:29.850Z,101683.52
2022-11-05T05:11:59.645Z,101686.33
2022-11-05T05:14:29.415Z,101686.91
2022-11-05T05:16:59.256Z,101685.05
2022-11-05T05:19:29.078Z,101686.56
2022-11-05T05:21:58.935Z,101688.27
2022-11-05T05:24:28.754Z,101697.42
2022-11-05T05:26:58.253Z,101696.27
2022-11-05T05:29:27.987Z,101706.16
2022-11-05T05:31:57.751Z,101710.23
2022-11-05T05:34:27.502Z,101711.07
2022-11-05T05:36:57.241Z,101709.28
2022-11-05T05:39:27.474Z,101706.95
2022-11-05T05:41:57.401Z,101714.86
2022-11-05T05:44:26.859Z,101712.48
2022-11-05T05:46:56.657Z,101707.00
2022-11-05T05:49:26.418Z,101714.14
2022-11-05T05:51:56.763Z,101712.22
2022-11-05T05:54:32.141Z,101712.16
2022-11-05T05:56:58.185Z,101714.36
2022-11-05T05:59:28.040Z,101702.23
2022-11-05T06:01:58.389Z,101711.59
2022-11-05T06:04:28.303Z,101712.16
2022-11-05T06:06:58.084Z,101704.59
2022-11-05T06:09:27.869Z,101709.45
2022-11-05T06:11:57.622Z,101707.00
2022-11-05T06:14:27.434Z,101702.00
2022-11-05T06:16:57.233Z,101702.00
2022-11-05T06:19:27.188Z,101708.66
2022-11-05T06:21:56.934Z,101709.89
2022-11-05T06:24:26.499Z,101710.84
2022-11-05T06:26:56.301Z,101724.09
2022-11-05T06:29:26.062Z,101722.62
2022-11-05T06:31:55.933Z,101724.91
2022-11-05T06:34:25.390Z,101721.00
2022-11-05T06:36:55.413Z,101729.56
2022-11-05T06:39:25.248Z,101731.20
2022-11-05T06:44:26.530Z,101727.37
2022-11-05T06:46:56.406Z,101728.64
2022-11-05T06:49:26.784Z,101738.39
2022-11-05T06:51:56.512Z,101732.97
2022-11-05T06:54:26.447Z,101737.52
2022-11-05T06:56:56.459Z,101737.52
2022-11-05T06:59:26.295Z,101739.42
2022-11-05T07:01:55.953Z,101745.85
2022-11-05T07:04:25.922Z,101748.63
2022-11-05T07:06:55.700Z,101748.17
2022-11-05T07:09:25.888Z,101745.37
2022-11-05T07:11:55.951Z,101751.59
2022-11-05T07:14:25.902Z,101755.30
2022-11-05T07:16:57.236Z,101761.84
2022-11-05T07:19:27.009Z,101763.52
2022-11-05T07:21:57.059Z,101762.92
2022-11-05T07:24:26.555Z,101771.95
2022-11-05T07:26:56.315Z,101763.38
2022-11-05T07:29:26.097Z,101764.10
2022-11-05T07:31:55.883Z,101760.75
2022-11-05T07:34:25.665Z,101767.52
2022-11-05T07:36:55.452Z,101763.06
2022-11-05T07:39:25.199Z,101771.48
2022-11-05T07:41:55.656Z,101772.89
2022-11-05T07:44:26.956Z,101765.83
2022-11-05T07:46:57.039Z,101772.22
2022-11-05T07:49:26.478Z,101780.16
2022-11-05T07:51:56.292Z,101778.09
2022-11-05T07:54:26.762Z,101775.56
2022-11-05T07:56:56.513Z,101775.17
2022-11-05T07:59:26.304Z,101778.62
2022-11-05T08:01:56.523Z,101774.61
2022-11-05T08:04:26.734Z,101781.84
2022-11-05T08:06:56.476Z,101777.94
2022-11-05T08:09:26.324Z,101773.19
2022-11-05T08:12:02.693Z,101782.41
2022-11-05T08:14:28.626Z,101774.69
2022-11-05T08:17:01.283Z,101777.58
2022-11-05T08:19:30.762Z,101777.79
2022-11-05T08:22:00.553Z,101783.29
2022-11-05T08:24:30.323Z,101777.09
2022-11-05T08:27:00.139Z,101778.12
2022-11-05T08:29:29.636Z,101779.78
2022-11-05T08:31:59.435Z,101774.12
2022-11-05T08:34:29.279Z,101779.71
2022-11-05T08:37:00.920Z,101779.71
2022-11-05T08:39:30.789Z,101770.22
2022-11-05T08:42:00.723Z,101772.08
2022-11-05T08:44:30.748Z,101763.08
2022-11-05T08:47:00.661Z,101766.66
2022-11-05T08:49:30.435Z,101768.31
2022-11-05T08:52:00.207Z,101768.80
2022-11-05T08:54:29.954Z,101771.19
2022-11-05T08:56:59.472Z,101771.19
2022-11-05T08:59:29.799Z,101776.25
2022-11-05T09:01:59.890Z,101768.91
2022-11-05T09:04:29.423Z,101776.48
2022-11-05T09:06:59.209Z,101777.13
2022-11-05T09:09:29.253Z,101779.88
2022-11-05T09:12:11.696Z,101780.22
2022-11-05T09:14:31.500Z,101776.20
2022-11-05T09:17:01.228Z,101780.91
2022-11-05T09:19:30.744Z,101778.50
2022-11-05T09:22:00.547Z,101779.58
2022-11-05T09:24:30.876Z,101775.36
2022-11-05T09:27:00.709Z,101778.40
2022-11-05T09:29:30.481Z,101780.89
2022-11-05T09:32:00.262Z,101776.92
2022-11-05T09:34:30.097Z,101784.56
2022-11-05T09:36:59.735Z,101775.59
2022-11-05T09:39:30.055Z,101781.22
2022-11-05T09:42:02.855Z,101781.06
2022-11-05T09:44:41.103Z,101787.55
2022-11-05T09:47:24.048Z,101787.55
2022-11-05T09:49:56.335Z,101792.08
2022-11-05T09:52:28.756Z,101790.45
2022-11-05T09:54:59.025Z,101791.00
2022-11-05T09:57:40.137Z,101796.57
2022-11-05T10:02:56.416Z,101792.63
2022-11-05T10:05:27.904Z,101805.05
2022-11-05T10:08:00.691Z,101790.62
2022-11-05T10:10:41.048Z,101801.55
2022-11-05T10:13:39.360Z,101812.63
2022-11-05T10:16:26.767Z,101805.17
2022-11-05T10:19:19.138Z,101808.28
2022-11-05T10:22:06.321Z,101811.84
2022-11-05T10:24:22.263Z,101810.12
2022-11-05T10:26:54.072Z,101813.43
2022-11-05T10:29:32.356Z,101818.11
2022-11-05T10:32:05.524Z,101815.41
2022-11-05T10:34:37.937Z,101815.00
2022-11-05T10:37:07.715Z,101815.86
2022-11-05T10:39:38.024Z,101815.86
2022-11-05T10:42:15.552Z,101816.56
2022-11-05T10:44:51.070Z,101816.56
2022-11-05T10:47:26.540Z,101814.93
2022-11-05T10:50:15.636Z,101816.56
2022-11-05T10:52:57.347Z,101814.16
2022-11-05T10:55:33.212Z,101816.62
2022-11-05T10:58:18.005Z,101815.20
2022-11-05T11:00:53.664Z,101814.75
2022-11-05T11:03:50.176Z,101817.87
2022-11-05T11:06:28.461Z,101812.80
2022-11-05T11:09:03.233Z,101812.79
2022-11-05T11:11:39.024Z,101819.87
2022-11-05T11:14:17.177Z,101827.84
2022-11-05T11:16:51.155Z,101822.73
2022-11-05T11:19:35.130Z,101815.20
2022-11-05T11:22:10.797Z,101812.06
2022-11-05T11:24:49.948Z,101812.06
2022-11-05T11:27:25.916Z,101822.12
2022-11-05T11:30:07.043Z,101815.88
2022-11-05T11:32:40.887Z,101813.45
2022-11-05T11:35:22.392Z,101814.23
2022-11-05T11:37:54.552Z,101819.31
2022-11-05T11:40:27.321Z,101810.91
2022-11-05T11:42:59.472Z,101811.01
2022-11-05T11:45:35.059Z,101809.81
2022-11-05T11:48:09.210Z,101809.03
2022-11-05T11:50:46.996Z,101807.91
2022-11-05T11:53:22.686Z,101810.80
2022-11-05T11:56:16.527Z,101802.25
2022-11-05T11:58:51.305Z,101807.00
2022-11-05T12:01:43.416Z,101807.52
2022-11-05T12:04:28.038Z,101803.20
2022-11-05T12:07:27.873Z,101802.61
2022-11-05T12:10:04.249Z,101801.24
2022-11-05T12:12:37.044Z,101799.67
2022-11-05T12:15:23.188Z,101800.02
2022-11-05T12:18:02.060Z,101797.74
2022-11-05T12:20:43.386Z,101798.56
2022-11-05T12:23:31.372Z,101793.23
2022-11-05T12:26:06.664Z,101791.81
2022-11-05T12:29:17.138Z,101800.50
2022-11-05T12:31:44.611Z,101800.06
2022-11-05T12:34:14.859Z,101800.28
2022-11-05T12:36:55.992Z,101805.03
2022-11-05T12:39:44.845Z,101803.45
2022-11-05T12:42:42.883Z,101801.52
2022-11-05T12:45:33.279Z,101799.17
2022-11-05T12:48:09.011Z,101786.59
2022-11-05T12:50:44.356Z,101775.87
2022-11-05T12:56:10.000Z,101761.70
2022-11-05T12:58:42.629Z,101760.30
2022-11-05T13:01:18.454Z,101762.24
2022-11-05T13:03:54.285Z,101757.09
2022-11-05T13:06:26.769Z,101757.25
2022-11-05T13:09:02.474Z,101749.12
2022-11-05T13:11:37.552Z,101741.64
2022-11-05T13:14:14.940Z,101746.58
2022-11-05T13:17:05.681Z,101748.13
2022-11-05T13:19:53.455Z,101746.00
2022-11-05T13:22:38.112Z,101740.05
2022-11-05T13:25:26.459Z,101740.53
2022-11-05T13:28:26.296Z,101738.37
2022-11-05T13:31:01.527Z,101734.05
2022-11-05T13:33:34.634Z,101731.57
2022-11-05T13:36:27.046Z,101722.26
2022-11-05T13:39:11.653Z,101722.63
2022-11-05T13:42:17.284Z,101722.45
2022-11-05T13:44:55.820Z,101719.55
2022-11-05T13:47:49.558Z,101703.91
2022-11-05T13:50:50.333Z,101701.38
2022-11-05T13:53:40.997Z,101701.38
2022-11-05T13:56:35.594Z,101698.92
2022-11-05T13:59:24.612Z,101697.53
2022-11-05T14:02:03.086Z,101690.16
2022-11-05T14:04:38.758Z,101705.80
2022-11-05T14:07:14.640Z,101705.80
2022-11-05T14:09:44.171Z,101710.76
2022-11-05T14:12:22.667Z,101700.86
2022-11-05T14:14:59.155Z,101707.72
2022-11-05T14:17:31.266Z,101700.19
2022-11-05T14:20:09.616Z,101695.02
2022-11-05T14:22:43.349Z,101709.59
2022-11-05T14:25:25.360Z,101706.53
2022-11-05T14:27:55.210Z,101708.30
2022-11-05T14:30:48.994Z,101709.29
2022-11-05T14:33:31.533Z,101707.08
2022-11-05T14:36:22.317Z,101708.33
2022-11-05T14:39:03.981Z,101708.39
2022-11-05T14:41:30.047Z,101707.87
2022-11-05T14:44:02.825Z,101705.16
2022-11-05T14:46:48.206Z,101710.60
2022-11-05T14:49:23.773Z,101698.19
2022-11-05T14:51:56.289Z,101703.34
2022-11-05T14:54:29.410Z,101706.70
2022-11-05T14:57:03.026Z,101703.59
2022-11-05T14:59:35.337Z,101706.27
2022-11-05T15:02:14.099Z,101706.69
2022-11-05T15:04:45.694Z,101700.98
2022-11-05T15:07:25.002Z,101696.95
2022-11-05T15:09:57.787Z,101696.95
2022-11-05T15:12:51.592Z,101698.33
2022-11-05T15:15:29.880Z,101693.05
2022-11-05T15:18:05.434Z,101694.98
2022-11-05T15:20:41.081Z,101694.98
2022-11-05T15:23:14.067Z,101697.97
2022-11-05T15:25:53.162Z,101708.14
2022-11-05T15:28:38.803Z,101704.31
2022-11-05T15:31:14.031Z,101699.26
2022-11-05T15:33:48.393Z,101709.52
2022-11-05T15:36:29.343Z,101701.58
2022-11-05T15:39:29.130Z,101696.75
2022-11-05T15:41:48.437Z,101701.11
2022-11-05T15:44:28.269Z,101698.89
2022-11-05T15:47:19.287Z,101694.39
2022-11-05T15:49:57.793Z,101700.58
2022-11-05T15:52:36.434Z,101696.08
2022-11-05T15:55:12.971Z,101691.26
2022-11-05T15:57:51.663Z,101685.47
2022-11-05T16:00:24.470Z,101691.94
2022-11-05T16:03:06.706Z,101687.91
2022-11-05T16:05:39.274Z,101685.46
2022-11-05T16:08:16.840Z,101685.46
2022-11-05T16:10:49.707Z,101683.76
2022-11-05T16:13:31.698Z,101688.08
2022-11-05T16:16:05.274Z,101686.30
2022-11-05T16:18:38.527Z,101690.72
2022-11-05T16:21:18.487Z,101682.48
2022-11-05T16:23:51.534Z,101681.80
2022-11-05T16:29:22.010Z,101687.87
2022-11-05T16:31:54.672Z,101685.06
2022-11-05T16:34:36.622Z,101682.80
2022-11-05T16:37:08.909Z,101676.69
2022-11-05T16:39:38.781Z,101672.95
2022-11-05T16:42:28.926Z,101670.94
2022-11-05T16:44:58.681Z,101669.38
2022-11-05T16:47:28.451Z,101669.77
2022-11-05T16:49:58.259Z,101671.79
2022-11-05T16:52:28.047Z,101668.93
2022-11-05T16:54:57.835Z,101671.51
2022-11-05T16:57:30.882Z,101668.97
2022-11-05T17:00:01.837Z,101666.59
2022-11-05T17:02:31.723Z,101665.98
2022-11-05T17:05:01.569Z,101666.44
2022-11-05T17:07:31.346Z,101673.60
2022-11-05T17:10:01.163Z,101670.05
2022-11-05T17:12:30.611Z,101679.20
2022-11-05T17:15:00.375Z,101684.20
2022-11-05T17:17:30.436Z,101677.73
2022-11-05T17:20:00.198Z,101686.60
2022-11-05T17:22:29.940Z,101685.36
2022-11-05T17:24:59.678Z,101684.84
2022-11-05T17:27:29.431Z,101682.25
2022-11-05T17:29:58.931Z,101684.28
2022-11-05T17:32:28.764Z,101682.91
2022-11-05T17:34:58.541Z,101685.57
2022-11-05T17:37:28.359Z,101681.08
2022-11-05T17:39:58.438Z,101681.08
2022-11-05T17:42:28.116Z,101672.83
2022-11-05T17:44:58.169Z,101677.77
2022-11-05T17:47:28.627Z,101677.03
2022-11-05T17:49:58.436Z,101678.73
2022-11-05T17:52:29.478Z,101676.39
2022-11-05T17:54:59.209Z,101677.14
2022-11-05T17:57:29.048Z,101681.02
2022-11-05T17:59:58.778Z,101680.92
2022-11-05T18:02:29.583Z,101677.97
2022-11-05T18:04:59.442Z,101682.62
2022-11-05T18:07:29.203Z,101688.81
2022-11-05T18:09:59.036Z,101687.66
2022-11-05T18:12:28.899Z,101697.02
2022-11-05T18:14:58.453Z,101691.04
2022-11-05T18:17:28.310Z,101697.38
2022-11-05T18:19:58.273Z,101699.91
2022-11-05T18:22:28.006Z,101700.95
2022-11-05T18:24:57.760Z,101698.98
2022-11-05T18:27:27.997Z,101693.91
2022-11-05T18:29:58.083Z,101692.27
2022-11-05T18:32:27.659Z,101694.03
2022-11-05T18:34:57.417Z,101698.45
2022-11-05T18:37:27.196Z,101683.09
2022-11-05T18:39:56.952Z,101684.96
2022-11-05T18:42:26.755Z,101684.72
2022-11-05T18:44:56.576Z,101677.86
2022-11-05T18:47:26.420Z,101675.17
2022-11-05T18:49:56.231Z,101670.56
2022-11-05T18:52:26.535Z,101670.30
2022-11-05T18:54:56.368Z,101670.27
2022-11-05T18:57:26.282Z,101667.63
2022-11-05T18:59:56.064Z,101667.89
2022-11-05T19:02:25.728Z,101667.53
2022-11-05T19:05:26.901Z,101664.37
2022-11-05T19:07:27.122Z,101656.27
2022-11-05T19:09:56.848Z,101662.81
2022-11-05T19:12:26.602Z,101667.20
2022-11-05T19:15:01.920Z,101662.64
2022-11-05T19:17:27.816Z,101660.25
2022-11-05T19:19:57.613Z,101657.12
2022-11-05T19:22:27.764Z,101661.16
2022-11-05T19:24:57.809Z,101652.94
2022-11-05T19:27:27.561Z,101652.94
2022-11-05T19:29:57.587Z,101658.28
2022-11-05T19:32:27.716Z,101658.28
2022-11-05T19:34:57.907Z,101647.40
2022-11-05T19:37:27.701Z,101659.69
2022-11-05T19:39:57.503Z,101643.67
2022-11-05T19:42:28.087Z,101636.91
2022-11-05T19:45:03.176Z,101641.61
2022-11-05T19:47:29.105Z,101648.62
2022-11-05T19:49:58.850Z,101653.72
2022-11-05T19:52:28.656Z,101648.97
2022-11-05T19:54:58.171Z,101635.73
2022-11-05T19:57:28.684Z,101620.63
2022-11-05T19:59:58.438Z,101616.38
2022-11-05T20:02:28.619Z,101629.83
2022-11-05T20:04:58.814Z,101627.63
2022-11-05T20:07:28.570Z,101619.77
2022-11-05T20:09:58.317Z,101630.95
2022-11-05T20:12:27.792Z,101631.45
2022-11-05T20:14:57.571Z,101633.89
2022-11-05T20:17:27.407Z,101629.23
2022-11-05T20:19:56.930Z,101625.11
2022-11-05T20:22:26.691Z,101627.16
2022-11-05T20:24:56.743Z,101626.53
2022-11-05T20:27:26.537Z,101627.88
2022-11-05T20:29:56.362Z,101636.25
2022-11-05T20:32:27.392Z,101634.20
2022-11-05T20:34:57.261Z,101630.81
2022-11-05T20:37:27.051Z,101630.81
2022-11-05T20:39:56.865Z,101632.92
2022-11-05T20:42:26.442Z,101623.91
2022-11-05T20:44:56.170Z,101623.91
2022-11-05T20:47:25.917Z,101624.23
2022-11-05T20:49:57.281Z,101624.13
2022-11-05T20:52:29.703Z,101620.04
2022-11-05T20:55:01.091Z,101627.70
2022-11-05T20:57:30.925Z,101622.22
2022-11-05T21:00:00.675Z,101632.48
2022-11-05T21:02:30.591Z,101636.90
2022-11-05T21:05:00.171Z,101633.00
2022-11-05T21:07:29.983Z,101637.03
2022-11-05T21:10:00.102Z,101653.55
2022-11-05T21:12:29.872Z,101640.42
2022-11-05T21:14:59.926Z,101637.55
2022-11-05T21:17:29.727Z,101646.39
2022-11-05T21:19:59.176Z,101646.86
2022-11-05T21:22:28.874Z,101641.27
2022-11-05T21:24:58.606Z,101641.92
2022-11-05T21:27:28.534Z,101642.22
2022-11-05T21:29:57.997Z,101644.31
2022-11-05T21:32:27.771Z,101637.66
2022-11-05T21:34:57.544Z,101641.34
2022-11-05T21:37:27.519Z,101631.44
2022-11-05T21:39:57.273Z,101641.17
2022-11-05T21:42:26.750Z,101643.47
2022-11-05T21:45:00.368Z,101638.16
2022-11-05T21:47:29.277Z,101634.88
2022-11-05T21:49:59.063Z,101632.14
2022-11-05T21:52:46.604Z,101625.50
2022-11-05T21:55:33.761Z,101628.41
2022-11-05T21:58:23.827Z,101622.25
2022-11-05T22:00:53.591Z,101618.97
2022-11-05T22:03:23.654Z,101620.40
2022-11-05T22:05:53.947Z,101609.28
2022-11-05T22:08:23.482Z,101613.18
2022-11-05T22:10:53.233Z,101602.40
2022-11-05T22:13:23.029Z,101586.75
2022-11-05T22:15:56.927Z,101571.45
2022-11-05T22:18:26.750Z,101571.45
2022-11-05T22:20:56.476Z,101585.25
2022-11-05T22:23:26.237Z,101581.89
2022-11-05T22:26:02.472Z,101585.87
2022-11-05T22:28:32.053Z,101586.06
2022-11-05T22:31:01.801Z,101578.12
2022-11-05T22:33:32.548Z,101581.08
2022-11-05T22:36:03.802Z,101578.46
2022-11-05T22:38:33.933Z,101578.46
2022-11-05T22:41:10.895Z,101587.34
2022-11-05T22:43:40.828Z,101586.55
2022-11-05T22:46:14.490Z,101582.81
2022-11-05T22:48:45.061Z,101580.91
2022-11-05T22:51:17.872Z,101581.78
2022-11-05T22:53:48.210Z,101576.09
2022-11-05T22:56:20.825Z,101573.77
2022-11-05T22:58:51.627Z,101573.94
2022-11-05T23:01:22.515Z,101570.52
2022-11-05T23:03:54.466Z,101562.86
2022-11-05T23:06:50.651Z,101561.78
2022-11-05T23:09:52.851Z,101555.74
2022-11-05T23:12:25.471Z,101555.81
2022-11-05T23:14:57.484Z,101555.17
2022-11-05T23:17:45.282Z,101550.09
2022-11-05T23:20:40.678Z,101554.05
2022-11-05T23:23:31.421Z,101548.33
2022-11-05T23:26:03.954Z,101547.14
2022-11-05T23:28:33.699Z,101540.75
2022-11-05T23:31:20.756Z,101543.78
2022-11-05T23:33:50.498Z,101549.88
2022-11-05T23:36:38.188Z,101544.13
2022-11-05T23:39:08.079Z,101546.58
2022-11-05T23:41:55.173Z,101542.66
2022-11-05T23:44:42.187Z,101551.84
2022-11-05T23:47:29.449Z,101544.89
2022-11-05T23:49:59.209Z,101553.29
2022-11-05T23:52:28.951Z,101545.06
2022-11-05T23:54:59.031Z,101539.97
2022-11-05T23:57:28.786Z,101530.80
2022-11-05T23:59:58.538Z,101527.09
